sim
Sign-in with your pilot id or email,
or register
Callsign
Passwort

Schedule Details

Flight Number: DLH2055 (1)
Departure: Berlin Tegel Airport (EDDT) at 06:30
Arrival: Munich Airport (EDDM) at 07:40
Route: Lufthansa Passenger Schedule. Enter filed route here before submitting Pirep.

Weather Information
Getting current METAR information for EDDT 261950Z 18007KT 9999 FEW004 BKN008 10/09 Q0994 BECMG BKN010
Getting current METAR information for EDDM 261950Z 24017KT 9999 -RA BKN022 BKN035 07/04 Q1001 NOSIG

Schedule Frequency

Route Map